createdAt,value
2023-01-19T00:00:28.682Z,18.98
2023-01-19T00:03:31.239Z,15.02
2023-01-19T00:06:33.496Z,16.42
2023-01-19T00:09:38.219Z,16.23
2023-01-19T00:12:40.442Z,15.27
2023-01-19T00:15:43.476Z,15.73
2023-01-19T00:18:45.935Z,14.32
2023-01-19T00:21:48.868Z,14.80
2023-01-19T00:24:51.435Z,14.43
2023-01-19T00:27:54.214Z,15.95
2023-01-19T00:30:56.804Z,14.15
2023-01-19T00:33:59.938Z,15.73
2023-01-19T00:37:04.105Z,14.95
2023-01-19T00:40:07.568Z,15.25
2023-01-19T00:43:10.159Z,13.40
2023-01-19T00:46:12.772Z,15.77
2023-01-19T00:49:15.320Z,14.63
2023-01-19T00:52:17.863Z,12.57
2023-01-19T00:55:20.492Z,14.23
2023-01-19T00:58:23.427Z,12.77
2023-01-19T01:01:45.312Z,14.85
2023-01-19T01:04:48.115Z,14.98
2023-01-19T01:07:50.818Z,12.30
2023-01-19T01:10:54.975Z,13.32
2023-01-19T01:13:57.151Z,10.55
2023-01-19T01:17:01.626Z,9.82
2023-01-19T01:20:04.934Z,9.60
2023-01-19T01:23:07.610Z,10.68
2023-01-19T01:26:10.299Z,8.45
2023-01-19T01:29:13.336Z,7.12
2023-01-19T01:32:17.475Z,8.90
2023-01-19T01:35:20.645Z,7.80
2023-01-19T01:38:23.170Z,10.38
2023-01-19T01:41:27.516Z,6.03
2023-01-19T01:44:51.951Z,5.32
2023-01-19T01:48:00.156Z,4.60
2023-01-19T01:51:24.363Z,6.90
2023-01-19T01:54:30.891Z,5.97
2023-01-19T01:57:37.179Z,3.97
2023-01-19T02:00:59.224Z,3.10
2023-01-19T02:04:02.454Z,3.28
2023-01-19T02:07:23.221Z,3.80
2023-01-19T02:10:44.651Z,3.28
2023-01-19T02:13:47.719Z,2.50
2023-01-19T02:16:50.468Z,2.40
2023-01-19T02:19:53.872Z,2.58
2023-01-19T02:23:01.841Z,2.10
2023-01-19T02:26:05.888Z,3.08
2023-01-19T02:29:11.541Z,1.90
2023-01-19T02:32:13.910Z,1.92
2023-01-19T02:35:16.925Z,2.12
2023-01-19T02:38:21.215Z,1.45
2023-01-19T02:41:28.454Z,4.12
2023-01-19T02:44:32.264Z,2.33
2023-01-19T02:47:50.732Z,1.15
2023-01-19T02:51:08.302Z,0.82
2023-01-19T02:54:23.062Z,0.70
2023-01-19T02:57:31.475Z,0.85
2023-01-19T03:04:16.960Z,0.85
2023-01-19T03:07:38.245Z,0.70
2023-01-19T03:10:59.713Z,1.12
2023-01-19T03:14:18.466Z,0.82
2023-01-19T03:17:22.337Z,0.88
2023-01-19T03:20:25.534Z,0.62
2023-01-19T03:23:31.759Z,0.50
2023-01-19T03:26:41.036Z,3.55
2023-01-19T03:29:50.884Z,0.68
2023-01-19T03:33:03.405Z,0.73
2023-01-19T03:36:15.020Z,0.50
2023-01-19T03:39:22.517Z,0.40
2023-01-19T03:42:26.248Z,0.70
2023-01-19T03:45:33.427Z,0.40
2023-01-19T03:48:36.041Z,3.12
2023-01-19T03:51:39.782Z,0.80
2023-01-19T03:54:42.301Z,0.50
2023-01-19T03:57:45.303Z,0.57
2023-01-19T04:00:47.681Z,0.40
2023-01-19T04:03:51.308Z,1.37
2023-01-19T04:06:53.576Z,0.22
2023-01-19T04:09:56.451Z,0.47
2023-01-19T04:13:00.568Z,0.35
2023-01-19T04:16:05.006Z,0.60
2023-01-19T04:19:07.340Z,0.65
2023-01-19T04:22:10.516Z,0.43
2023-01-19T04:25:12.794Z,0.73
2023-01-19T04:28:15.683Z,1.67
2023-01-19T04:31:19.389Z,1.60
2023-01-19T04:34:22.072Z,0.62
2023-01-19T04:37:24.375Z,1.70
2023-01-19T04:40:26.967Z,2.40
2023-01-19T04:43:29.217Z,1.87
2023-01-19T04:46:31.872Z,0.50
2023-01-19T04:49:34.075Z,0.40
2023-01-19T04:52:36.662Z,0.20
2023-01-19T04:55:39.353Z,0.70
2023-01-19T04:58:41.909Z,1.58
2023-01-19T05:01:44.108Z,12.00
2023-01-19T05:04:46.960Z,1.40
2023-01-19T05:07:49.176Z,0.93
2023-01-19T05:10:52.117Z,0.77
2023-01-19T05:13:54.516Z,0.47
2023-01-19T05:16:57.762Z,3.33
2023-01-19T05:20:00.134Z,0.73
2023-01-19T05:23:03.341Z,0.68
2023-01-19T05:26:05.993Z,1.12
2023-01-19T05:29:10.280Z,0.30
2023-01-19T05:32:13.721Z,0.55
2023-01-19T05:35:20.215Z,0.50
2023-01-19T05:38:35.501Z,0.20
2023-01-19T05:41:38.589Z,1.27
2023-01-19T05:44:41.002Z,0.20
2023-01-19T05:47:43.839Z,0.20
2023-01-19T05:50:46.189Z,0.95
2023-01-19T05:53:48.677Z,1.10
2023-01-19T05:56:50.839Z,0.85
2023-01-19T05:59:53.305Z,0.85
2023-01-19T06:02:55.769Z,0.70
2023-01-19T06:06:03.457Z,0.32
2023-01-19T06:09:07.861Z,1.80
2023-01-19T06:12:10.733Z,4.72
2023-01-19T06:15:14.483Z,1.25
2023-01-19T06:18:17.188Z,1.48
2023-01-19T06:21:19.623Z,0.90
2023-01-19T06:24:23.143Z,1.20
2023-01-19T06:27:25.873Z,1.40
2023-01-19T06:30:29.101Z,0.20
2023-01-19T06:33:31.845Z,0.40
2023-01-19T06:36:34.723Z,0.60
2023-01-19T06:39:40.724Z,2.60
2023-01-19T06:42:43.443Z,1.95
2023-01-19T06:45:46.385Z,0.40
2023-01-19T06:48:49.785Z,1.50
2023-01-19T06:51:52.319Z,0.90
2023-01-19T06:54:55.551Z,1.02
2023-01-19T06:58:00.644Z,1.48
2023-01-19T07:01:07.745Z,1.67
2023-01-19T07:04:14.066Z,1.77
2023-01-19T07:07:17.957Z,2.25
2023-01-19T07:10:21.105Z,3.42
2023-01-19T07:13:25.140Z,2.42
2023-01-19T07:16:27.854Z,2.33
2023-01-19T07:19:32.353Z,3.03
2023-01-19T07:54:42.239Z,3.53
2023-01-19T07:57:51.054Z,3.00
2023-01-19T08:00:53.742Z,3.97
2023-01-19T08:03:56.368Z,3.58
2023-01-19T08:06:58.744Z,4.90
2023-01-19T08:10:01.289Z,4.78
2023-01-19T08:13:03.868Z,3.53
2023-01-19T08:16:07.424Z,3.42
2023-01-19T08:19:09.952Z,3.40
2023-01-19T08:22:12.627Z,4.90
2023-01-19T08:25:15.101Z,5.97
2023-01-19T08:28:18.813Z,8.32
2023-01-19T08:31:24.513Z,4.72
2023-01-19T08:34:28.014Z,4.43
2023-01-19T08:37:38.687Z,5.25
2023-01-19T08:40:59.260Z,3.42
2023-01-19T09:15:50.179Z,7.20
2023-01-19T09:18:57.146Z,6.10
2023-01-19T09:33:44.391Z,10.30
2023-01-19T09:36:52.375Z,6.47
2023-01-19T09:39:59.033Z,8.82
2023-01-19T09:52:12.227Z,10.35
2023-01-19T11:15:24.467Z,10.63
2023-01-19T11:18:36.090Z,22.52
2023-01-19T11:21:38.813Z,10.25
2023-01-19T11:24:44.503Z,13.80
2023-01-19T13:13:23.893Z,17.98
2023-01-19T13:16:27.555Z,18.37
2023-01-19T13:19:42.841Z,18.85
2023-01-19T13:22:49.754Z,17.75
2023-01-19T13:25:58.913Z,14.77
2023-01-19T13:29:14.290Z,14.65
2023-01-19T13:32:19.465Z,15.07
2023-01-19T13:35:24.449Z,15.07
2023-01-19T13:38:29.383Z,16.42
2023-01-19T13:41:38.125Z,14.35
2023-01-19T13:44:52.470Z,17.92
2023-01-19T13:47:58.655Z,17.08
2023-01-19T13:51:07.120Z,18.12
2023-01-19T13:54:17.882Z,16.62
2023-01-19T13:57:29.956Z,16.48
2023-01-19T14:00:33.429Z,16.33
2023-01-19T14:03:36.484Z,15.48
2023-01-19T14:06:45.326Z,16.23
2023-01-19T14:10:04.704Z,13.75
2023-01-19T14:13:15.778Z,20.65
2023-01-19T14:16:25.765Z,14.07
2023-01-19T14:19:28.627Z,14.68
2023-01-19T14:22:40.557Z,15.57
2023-01-19T14:25:45.030Z,12.23
2023-01-19T14:28:48.071Z,14.57
2023-01-19T14:32:15.350Z,13.23
2023-01-19T14:35:25.232Z,15.85
2023-01-19T14:38:27.638Z,16.85
2023-01-19T14:41:48.029Z,14.43
2023-01-19T14:44:53.433Z,10.55
2023-01-19T14:48:18.063Z,17.30
2023-01-19T14:51:24.138Z,16.12
2023-01-19T14:54:33.708Z,15.35
2023-01-19T14:57:37.179Z,15.15
2023-01-19T15:00:41.845Z,16.70
2023-01-19T15:03:45.592Z,14.57
2023-01-19T15:06:48.592Z,17.02
2023-01-19T15:09:51.575Z,16.62
2023-01-19T15:12:55.160Z,17.02
2023-01-19T15:15:58.879Z,19.12
2023-01-19T15:19:01.753Z,15.93
2023-01-19T15:22:11.384Z,17.17
2023-01-19T15:25:21.190Z,17.27
2023-01-19T15:31:28.076Z,17.65
2023-01-19T15:34:30.404Z,17.77
2023-01-19T15:37:33.275Z,17.50
2023-01-19T15:40:35.635Z,20.20
2023-01-19T15:43:38.886Z,15.13
2023-01-19T15:46:41.254Z,19.95
2023-01-19T15:49:43.972Z,23.70
2023-01-19T15:52:46.631Z,17.55
2023-01-19T15:55:51.926Z,18.92
2023-01-19T15:58:55.254Z,20.20
2023-01-19T16:01:57.934Z,21.17
2023-01-19T16:05:00.597Z,18.75
2023-01-19T16:08:02.921Z,25.12
2023-01-19T16:11:11.535Z,17.45
2023-01-19T16:14:15.071Z,16.73
2023-01-19T16:17:18.720Z,22.65
2023-01-19T16:20:21.105Z,19.60
2023-01-19T16:23:23.786Z,18.45
2023-01-19T16:26:27.905Z,20.45
2023-01-19T16:29:31.158Z,20.20
2023-01-19T16:32:34.031Z,20.98
2023-01-19T16:35:36.531Z,20.98
2023-01-19T16:38:38.739Z,22.80
2023-01-19T16:41:42.503Z,22.42
2023-01-19T16:44:45.049Z,19.83
2023-01-19T16:47:50.626Z,23.20
2023-01-19T16:51:06.116Z,25.00
2023-01-19T16:54:13.208Z,22.92
2023-01-19T16:57:15.471Z,26.48
2023-01-19T17:00:18.437Z,21.48
2023-01-19T17:03:20.685Z,29.08
2023-01-19T17:06:24.605Z,22.55
2023-01-19T17:09:26.975Z,20.45
2023-01-19T17:12:32.062Z,25.70
2023-01-19T17:15:34.890Z,20.15
2023-01-19T17:18:37.969Z,19.62
2023-01-19T17:21:40.443Z,19.52
2023-01-19T17:24:43.639Z,18.77
2023-01-19T17:27:45.853Z,20.85
2023-01-19T17:30:51.315Z,20.92
2023-01-19T17:33:53.959Z,21.12
2023-01-19T17:37:02.791Z,19.33
2023-01-19T17:40:05.808Z,22.50
2023-01-19T17:43:08.855Z,15.68
2023-01-19T17:46:12.139Z,17.92
2023-01-19T17:49:14.942Z,18.45
2023-01-19T17:52:17.984Z,17.27
2023-01-19T17:55:20.745Z,15.65
2023-01-19T17:58:23.658Z,15.32
2023-01-19T18:01:31.572Z,15.75
2023-01-19T18:04:37.727Z,17.00
2023-01-19T18:07:40.374Z,13.85
2023-01-19T18:10:43.016Z,14.82
2023-01-19T18:13:48.187Z,14.82
2023-01-19T18:16:51.463Z,15.07
2023-01-19T18:19:54.785Z,13.85
2023-01-19T18:22:57.714Z,14.07
2023-01-19T18:26:02.527Z,16.77
2023-01-19T18:29:05.180Z,16.08
2023-01-19T18:32:07.447Z,15.75
2023-01-19T18:35:09.990Z,12.93
2023-01-19T18:38:12.581Z,16.23
2023-01-19T18:41:21.250Z,14.15
2023-01-19T18:44:23.759Z,12.20
2023-01-19T18:47:27.286Z,15.77
2023-01-19T18:50:29.559Z,13.00
2023-01-19T18:53:32.575Z,15.60
2023-01-19T18:56:34.805Z,15.10
2023-01-19T18:59:37.733Z,14.70
2023-01-19T19:02:39.905Z,16.77
2023-01-19T19:05:43.508Z,13.18
2023-01-19T19:08:56.550Z,13.57
2023-01-19T19:11:59.868Z,15.82
2023-01-19T19:15:02.498Z,14.60
2023-01-19T19:18:06.046Z,15.63
2023-01-19T19:21:10.722Z,15.13
2023-01-19T19:24:13.495Z,15.68
2023-01-19T19:27:17.037Z,13.45
2023-01-19T19:30:20.889Z,13.02
2023-01-19T19:33:23.075Z,15.35
2023-01-19T19:36:27.739Z,16.23
2023-01-19T19:39:30.247Z,18.40
2023-01-19T19:42:34.515Z,13.57
2023-01-19T19:45:37.355Z,13.62
2023-01-19T19:48:40.295Z,15.02
2023-01-19T19:51:42.827Z,13.80
2023-01-19T19:54:48.284Z,14.77
2023-01-19T19:57:50.853Z,16.92
2023-01-19T20:00:54.687Z,14.18
2023-01-19T20:03:59.918Z,13.60
2023-01-19T20:07:02.532Z,16.35
2023-01-19T20:10:05.491Z,14.02
2023-01-19T20:13:09.273Z,15.10
2023-01-19T20:16:17.597Z,15.00
2023-01-19T20:19:19.849Z,11.73
2023-01-19T20:22:22.461Z,13.55
2023-01-19T20:25:25.185Z,12.13
2023-01-19T20:28:28.674Z,13.00
2023-01-19T20:31:33.723Z,15.32
2023-01-19T20:34:36.675Z,13.23
2023-01-19T20:37:38.961Z,12.32
2023-01-19T20:40:41.597Z,10.43
2023-01-19T20:43:43.991Z,13.15
2023-01-19T20:46:46.665Z,10.93
2023-01-19T20:49:48.932Z,9.85
2023-01-19T20:52:51.745Z,13.32
2023-01-19T20:55:54.222Z,13.32
2023-01-19T20:58:58.935Z,10.82
2023-01-19T21:02:01.144Z,16.98
2023-01-19T21:05:04.003Z,14.93
2023-01-19T21:08:06.308Z,14.02
2023-01-19T21:11:09.405Z,13.02
2023-01-19T21:14:12.023Z,12.20
2023-01-19T21:17:16.873Z,11.70
2023-01-19T21:20:19.486Z,11.52
2023-01-19T21:23:22.304Z,14.30
2023-01-19T21:26:24.668Z,13.15
2023-01-19T21:29:27.638Z,13.32
2023-01-19T21:32:29.811Z,14.85
2023-01-19T21:35:32.493Z,14.07
2023-01-19T21:38:36.263Z,12.23
2023-01-19T21:41:40.268Z,16.85
2023-01-19T21:44:42.559Z,12.20
2023-01-19T21:47:45.075Z,13.98
2023-01-19T21:50:57.043Z,18.40
2023-01-19T21:54:00.423Z,14.10
2023-01-19T21:57:03.102Z,13.00
2023-01-19T22:00:06.583Z,14.55
2023-01-19T22:03:10.197Z,14.60
2023-01-19T22:06:14.170Z,13.50
2023-01-19T22:09:16.506Z,11.12
2023-01-19T22:12:19.032Z,11.70
2023-01-19T22:15:21.326Z,10.93
2023-01-19T22:18:24.291Z,12.10
2023-01-19T22:21:30.783Z,13.02
2023-01-19T22:24:33.313Z,11.27
2023-01-19T22:27:37.410Z,13.65
2023-01-19T22:30:40.356Z,12.43
2023-01-19T22:33:43.127Z,12.05
2023-01-19T22:36:46.039Z,18.60
2023-01-19T22:39:48.315Z,12.30
2023-01-19T22:42:50.983Z,11.80
2023-01-19T22:45:53.224Z,12.10
2023-01-19T22:48:56.525Z,14.25
2023-01-19T22:51:58.848Z,9.75
2023-01-19T22:55:01.359Z,11.00
2023-01-19T22:58:03.531Z,12.77
2023-01-19T23:01:20.061Z,10.23
2023-01-19T23:04:22.465Z,11.02
2023-01-19T23:07:25.411Z,17.15
2023-01-19T23:10:28.076Z,13.32
2023-01-19T23:13:30.585Z,12.35
2023-01-19T23:16:34.071Z,10.27
2023-01-19T23:19:36.678Z,10.65
2023-01-19T23:22:39.859Z,12.90
2023-01-19T23:25:42.730Z,11.35
2023-01-19T23:28:46.326Z,10.60
2023-01-19T23:31:49.658Z,12.13
2023-01-19T23:34:52.373Z,10.65
2023-01-19T23:37:55.442Z,10.10
2023-01-19T23:40:57.888Z,11.23
2023-01-19T23:44:01.239Z,12.27
2023-01-19T23:47:04.065Z,13.10
2023-01-19T23:50:07.538Z,12.48
2023-01-19T23:53:10.104Z,11.57
2023-01-19T23:56:19.717Z,13.48
2023-01-19T23:59:21.905Z,13.25
